createdAt,value
2018-02-14T00:01:05.017Z,83.60
2018-02-14T00:03:33.357Z,83.70
2018-02-14T00:06:01.441Z,83.70
2018-02-14T00:08:29.233Z,83.60
2018-02-14T00:10:56.780Z,83.70
2018-02-14T00:13:24.330Z,83.50
2018-02-14T00:15:51.925Z,83.70
2018-02-14T00:18:21.066Z,83.90
2018-02-14T00:20:48.609Z,83.90
2018-02-14T00:23:17.694Z,84.00
2018-02-14T00:25:46.009Z,83.70
2018-02-14T00:28:13.553Z,83.70
2018-02-14T00:30:41.665Z,83.70
2018-02-14T00:33:09.217Z,83.80
2018-02-14T00:35:36.765Z,83.70
2018-02-14T00:38:04.343Z,83.60
2018-02-14T00:40:31.884Z,83.70
2018-02-14T00:42:59.684Z,83.70
2018-02-14T00:45:27.663Z,83.90
2018-02-14T00:47:55.233Z,83.40
2018-02-14T00:50:22.777Z,83.80
2018-02-14T00:52:50.621Z,83.70
2018-02-14T00:55:18.272Z,83.60
2018-02-14T00:57:45.818Z,83.70
2018-02-14T01:00:13.430Z,83.50
2018-02-14T01:02:40.975Z,83.50
2018-02-14T01:05:10.028Z,83.50
2018-02-14T01:07:38.438Z,83.50
2018-02-14T01:10:05.989Z,83.50
2018-02-14T01:12:33.534Z,83.50
2018-02-14T01:15:01.428Z,84.00
2018-02-14T01:17:28.982Z,83.30
2018-02-14T01:20:02.738Z,83.50
2018-02-14T01:22:30.286Z,83.60
2018-02-14T01:24:57.833Z,83.50
2018-02-14T01:27:26.907Z,83.20
2018-02-14T01:29:54.457Z,83.20
2018-02-14T01:32:22.035Z,83.20
2018-02-14T01:34:50.093Z,82.90
2018-02-14T01:37:17.638Z,83.10
2018-02-14T01:39:45.597Z,83.20
2018-02-14T01:42:13.198Z,83.30
2018-02-14T01:44:40.741Z,83.20
2018-02-14T01:47:08.289Z,83.20
2018-02-14T01:49:36.685Z,83.40
2018-02-14T01:52:04.240Z,83.10
2018-02-14T01:54:31.785Z,83.00
2018-02-14T01:56:59.626Z,83.10
2018-02-14T01:59:27.175Z,82.70
2018-02-14T02:01:54.721Z,82.90
2018-02-14T02:04:22.312Z,82.80
2018-02-14T02:06:49.857Z,82.90
2018-02-14T02:09:17.408Z,83.10
2018-02-14T02:11:45.884Z,82.90
2018-02-14T02:14:14.197Z,82.90
2018-02-14T02:16:41.749Z,82.70
2018-02-14T02:19:09.369Z,82.30
2018-02-14T02:21:36.913Z,82.50
2018-02-14T02:24:04.764Z,82.50
2018-02-14T02:26:32.595Z,82.30
2018-02-14T02:29:00.141Z,82.60
2018-02-14T02:31:27.746Z,82.20
2018-02-14T02:33:56.097Z,82.40
2018-02-14T02:36:24.078Z,82.00
2018-02-14T02:38:52.167Z,82.10
2018-02-14T02:41:19.710Z,83.10
2018-02-14T02:43:47.256Z,82.00
2018-02-14T02:46:15.146Z,82.70
2018-02-14T02:48:42.717Z,82.10
2018-02-14T02:51:10.446Z,82.90
2018-02-14T02:53:38.142Z,82.40
2018-02-14T02:56:05.695Z,82.30
2018-02-14T02:58:33.247Z,82.10
2018-02-14T03:01:01.018Z,82.10
2018-02-14T03:03:28.718Z,82.30
2018-02-14T03:05:56.268Z,82.20
2018-02-14T03:08:24.930Z,82.30
2018-02-14T03:10:52.473Z,82.10
2018-02-14T03:13:20.023Z,82.20
2018-02-14T03:15:47.884Z,82.00
2018-02-14T03:18:15.429Z,82.10
2018-02-14T03:20:42.973Z,82.10
2018-02-14T03:23:10.548Z,82.10
2018-02-14T03:25:38.094Z,82.60
2018-02-14T03:28:05.658Z,82.20
2018-02-14T03:30:33.479Z,82.40
2018-02-14T03:33:01.022Z,82.60
2018-02-14T03:35:28.567Z,83.50
2018-02-14T03:37:56.253Z,83.50
2018-02-14T03:40:23.861Z,83.40
2018-02-14T03:42:51.416Z,83.60
2018-02-14T03:45:19.823Z,83.70
2018-02-14T03:47:47.370Z,83.70
2018-02-14T03:50:14.913Z,84.40
2018-02-14T03:52:42.739Z,84.20
2018-02-14T03:55:10.461Z,83.80
2018-02-14T03:57:38.005Z,83.20
2018-02-14T04:00:06.376Z,83.90
2018-02-14T04:02:33.925Z,83.80
2018-02-14T04:05:02.243Z,83.60
2018-02-14T04:07:30.660Z,83.50
2018-02-14T04:09:58.617Z,83.10
2018-02-14T04:12:26.176Z,83.40
2018-02-14T04:14:54.259Z,83.60
2018-02-14T04:17:21.810Z,83.50
2018-02-14T04:19:49.550Z,83.60
2018-02-14T04:22:17.198Z,85.20
2018-02-14T04:24:44.750Z,85.30
2018-02-14T04:27:12.305Z,85.80
2018-02-14T04:29:39.906Z,85.20
2018-02-14T04:32:09.197Z,85.50
2018-02-14T04:34:36.746Z,85.70
2018-02-14T04:37:04.649Z,86.00
2018-02-14T04:39:32.193Z,86.00
2018-02-14T04:41:59.742Z,86.50
2018-02-14T04:44:27.558Z,86.40
2018-02-14T04:46:55.258Z,86.20
2018-02-14T04:49:22.815Z,85.80
2018-02-14T04:51:50.632Z,85.60
2018-02-14T04:54:18.179Z,85.70
2018-02-14T04:56:45.721Z,86.10
2018-02-14T04:59:13.414Z,86.20
2018-02-14T05:01:40.965Z,86.20
2018-02-14T05:04:09.132Z,86.20
2018-02-14T05:06:36.707Z,86.10
2018-02-14T05:09:05.018Z,85.80
2018-02-14T05:11:33.560Z,85.80
2018-02-14T05:14:01.116Z,85.90
2018-02-14T05:16:30.168Z,85.80
2018-02-14T05:18:59.194Z,85.80
2018-02-14T05:21:26.744Z,85.60
2018-02-14T05:23:54.295Z,85.60
2018-02-14T05:26:21.983Z,85.70
2018-02-14T05:28:49.824Z,85.60
2018-02-14T05:31:18.352Z,85.50
2018-02-14T05:33:46.881Z,85.40
2018-02-14T05:36:14.425Z,85.40
2018-02-14T05:38:41.980Z,85.40
2018-02-14T05:41:10.725Z,85.30
2018-02-14T05:43:38.270Z,85.20
2018-02-14T05:46:05.823Z,85.50
2018-02-14T05:48:33.805Z,85.50
2018-02-14T05:51:01.352Z,85.80
2018-02-14T05:53:29.095Z,85.90
2018-02-14T05:55:56.797Z,85.80
2018-02-14T05:58:24.345Z,85.70
2018-02-14T06:00:51.898Z,85.60
2018-02-14T06:03:21.610Z,86.50
2018-02-14T06:05:49.442Z,85.60
2018-02-14T06:08:16.986Z,86.10
2018-02-14T06:10:47.269Z,85.80
2018-02-14T06:13:14.818Z,85.80
2018-02-14T06:15:42.362Z,85.80
2018-02-14T06:18:10.423Z,85.80
2018-02-14T06:20:37.970Z,86.50
2018-02-14T06:23:05.517Z,86.00
2018-02-14T06:25:33.432Z,86.00
2018-02-14T06:28:00.969Z,86.00
2018-02-14T06:30:28.517Z,85.90
2018-02-14T06:32:56.261Z,85.80
2018-02-14T06:35:27.357Z,85.80
2018-02-14T06:37:54.909Z,85.80
2018-02-14T06:40:22.685Z,85.70
2018-02-14T06:42:51.681Z,85.50
2018-02-14T06:45:19.346Z,85.30
2018-02-14T06:47:48.578Z,85.30
2018-02-14T06:50:17.729Z,85.30
2018-02-14T06:52:45.686Z,85.20
2018-02-14T06:55:13.988Z,85.30
2018-02-14T06:57:41.541Z,85.20
2018-02-14T07:00:09.083Z,85.20
2018-02-14T07:02:36.965Z,85.20
2018-02-14T07:05:04.509Z,84.90
2018-02-14T07:07:32.052Z,85.00
2018-02-14T07:09:59.650Z,84.90
2018-02-14T07:12:27.193Z,85.00
2018-02-14T07:14:54.742Z,85.10
2018-02-14T07:17:22.531Z,84.90
2018-02-14T07:19:50.074Z,85.00
2018-02-14T07:22:17.624Z,84.90
2018-02-14T07:24:45.514Z,84.80
2018-02-14T07:27:13.054Z,84.70
2018-02-14T07:29:40.599Z,84.50
2018-02-14T07:32:08.294Z,84.40
2018-02-14T07:34:42.330Z,84.40
2018-02-14T07:37:14.525Z,84.70
2018-02-14T07:39:42.870Z,84.70
2018-02-14T07:42:10.415Z,84.80
2018-02-14T07:44:40.936Z,84.50
2018-02-14T07:47:08.562Z,83.80
2018-02-14T07:49:36.106Z,83.20
2018-02-14T07:52:04.473Z,83.30
2018-02-14T07:54:39.477Z,83.30
2018-02-14T07:57:07.018Z,83.10
2018-02-14T07:59:34.796Z,82.90
2018-02-14T08:02:02.559Z,83.60
2018-02-14T08:04:30.106Z,82.30
2018-02-14T08:06:57.645Z,82.40
2018-02-14T08:09:25.350Z,82.70
2018-02-14T08:11:52.900Z,82.90
2018-02-14T08:14:22.516Z,83.10
2018-02-14T08:16:51.482Z,83.30
2018-02-14T08:19:19.021Z,83.10
2018-02-14T08:21:46.561Z,83.20
2018-02-14T08:24:18.886Z,83.10
2018-02-14T08:26:46.421Z,83.00
2018-02-14T08:29:13.959Z,83.10
2018-02-14T08:31:43.714Z,82.80
2018-02-14T08:34:11.250Z,82.30
2018-02-14T08:36:40.773Z,82.00
2018-02-14T08:39:11.626Z,80.10
2018-02-14T08:41:39.176Z,81.90
2018-02-14T08:44:06.717Z,81.60
2018-02-14T08:46:34.577Z,81.00
2018-02-14T08:49:02.113Z,79.80
2018-02-14T08:51:29.657Z,80.10
2018-02-14T08:54:01.175Z,80.10
2018-02-14T08:56:28.713Z,80.70
2018-02-14T08:59:00.241Z,80.30
2018-02-14T09:01:29.582Z,79.70
2018-02-14T09:03:57.220Z,78.60
2018-02-14T09:06:24.766Z,79.60
2018-02-14T09:08:53.593Z,79.40
2018-02-14T09:11:21.134Z,78.50
2018-02-14T09:13:48.682Z,78.70
2018-02-14T09:16:16.577Z,79.00
2018-02-14T09:18:44.116Z,77.70
2018-02-14T09:21:11.658Z,78.60
2018-02-14T09:23:39.357Z,77.70
2018-02-14T09:26:06.900Z,78.50
2018-02-14T09:28:34.442Z,77.30
2018-02-14T09:31:02.141Z,77.70
2018-02-14T09:33:29.778Z,77.50
2018-02-14T09:35:58.018Z,75.90
2018-02-14T09:38:25.558Z,78.10
2018-02-14T09:40:53.867Z,77.00
2018-02-14T09:43:27.214Z,77.00
2018-02-14T09:45:54.767Z,76.20
2018-02-14T09:48:22.309Z,76.30
2018-02-14T09:50:50.196Z,74.90
2018-02-14T09:53:17.732Z,73.20
2018-02-14T09:55:45.473Z,75.30
2018-02-14T09:58:13.056Z,75.50
2018-02-14T10:00:40.609Z,73.90
2018-02-14T10:03:08.158Z,73.50
2018-02-14T10:05:35.962Z,72.80
2018-02-14T10:08:03.580Z,72.70
2018-02-14T10:10:31.123Z,72.20
2018-02-14T10:13:00.587Z,72.10
2018-02-14T10:15:28.128Z,72.20
2018-02-14T10:17:59.310Z,73.20
2018-02-14T10:20:31.761Z,73.30
2018-02-14T10:22:59.309Z,73.30
2018-02-14T10:25:27.455Z,75.20
2018-02-14T10:27:55.030Z,73.30
2018-02-14T10:30:22.573Z,75.00
2018-02-14T10:32:50.110Z,74.50
2018-02-14T10:35:18.442Z,73.30
2018-02-14T10:37:45.989Z,73.20
2018-02-14T10:40:13.539Z,74.60
2018-02-14T10:42:41.329Z,74.00
2018-02-14T10:45:09.160Z,72.80
2018-02-14T10:47:36.693Z,72.30
2018-02-14T10:50:05.138Z,72.50
2018-02-14T10:52:34.241Z,72.40
2018-02-14T10:55:01.781Z,72.00
2018-02-14T10:57:29.555Z,71.40
2018-02-14T10:59:57.093Z,71.00
2018-02-14T11:02:24.638Z,69.70
2018-02-14T11:04:57.960Z,70.30
2018-02-14T11:07:25.506Z,70.60
2018-02-14T11:09:53.045Z,68.10
2018-02-14T11:12:21.060Z,69.70
2018-02-14T11:14:48.597Z,66.60
2018-02-14T11:17:16.137Z,68.00
2018-02-14T11:19:43.839Z,65.70
2018-02-14T11:22:11.474Z,66.00
2018-02-14T11:24:42.641Z,66.30
2018-02-14T11:27:11.905Z,65.70
2018-02-14T11:29:39.445Z,64.80
2018-02-14T11:32:08.089Z,62.00
2018-02-14T11:34:39.873Z,62.00
2018-02-14T11:37:08.182Z,64.00
2018-02-14T11:39:37.012Z,63.50
2018-02-14T11:42:05.685Z,64.70
2018-02-14T11:44:33.236Z,64.40
2018-02-14T11:47:01.022Z,63.40
2018-02-14T11:49:28.562Z,62.40
2018-02-14T11:51:56.102Z,62.60
2018-02-14T11:54:24.213Z,60.90
2018-02-14T11:56:51.749Z,62.30
2018-02-14T11:59:19.494Z,63.10
2018-02-14T12:01:47.093Z,61.60
2018-02-14T12:04:14.642Z,61.70
2018-02-14T12:06:43.801Z,63.90
2018-02-14T12:09:13.821Z,59.70
2018-02-14T12:11:41.640Z,59.70
2018-02-14T12:14:09.326Z,59.40
2018-02-14T12:16:36.865Z,61.90
2018-02-14T12:19:04.466Z,62.00
2018-02-14T12:21:32.009Z,62.60
2018-02-14T12:24:03.118Z,60.50
2018-02-14T12:26:32.620Z,60.50
2018-02-14T12:29:00.157Z,60.90
2018-02-14T12:31:27.693Z,60.70
2018-02-14T14:59:52.129Z,74.70
2018-02-14T15:02:20.067Z,74.70
2018-02-14T15:04:47.608Z,74.80
2018-02-14T15:07:15.178Z,75.20
2018-02-14T15:09:43.045Z,74.90
2018-02-14T15:12:10.589Z,74.80
2018-02-14T15:14:38.134Z,75.50
2018-02-14T15:17:05.825Z,75.10
2018-02-14T15:19:37.789Z,75.80
2018-02-14T15:22:06.520Z,76.40
2018-02-14T15:24:34.154Z,76.40
2018-02-14T15:27:01.697Z,76.20
2018-02-14T15:29:31.765Z,76.70
2018-02-14T15:32:03.416Z,77.00
2018-02-14T15:34:31.133Z,76.40
2018-02-14T15:36:58.682Z,76.80
2018-02-14T15:39:28.301Z,76.60
2018-02-14T15:41:56.164Z,76.70
2018-02-14T15:44:23.709Z,77.00
2018-02-14T15:46:51.255Z,77.60
2018-02-14T15:49:22.694Z,77.30
2018-02-14T15:51:50.297Z,77.50
2018-02-14T15:54:17.847Z,78.30
2018-02-14T15:56:45.389Z,79.20
2018-02-14T15:59:16.358Z,78.10
2018-02-14T16:01:49.914Z,78.60
2018-02-14T16:04:20.676Z,78.20
2018-02-14T16:06:48.227Z,78.50
2018-02-14T16:09:15.827Z,78.20
2018-02-14T16:14:16.313Z,79.10
2018-02-14T16:16:43.857Z,78.20
2018-02-14T16:19:12.833Z,78.50
2018-02-14T16:21:41.164Z,78.40
2018-02-14T16:24:08.713Z,78.40
2018-02-14T16:26:36.457Z,78.80
2018-02-14T16:29:11.281Z,78.80
2018-02-14T16:31:38.835Z,78.70
2018-02-14T16:34:06.409Z,79.00
2018-02-14T16:36:41.225Z,79.30
2018-02-14T16:39:11.683Z,78.70
2018-02-14T16:41:39.229Z,78.70
2018-02-14T16:44:08.258Z,78.60
2018-02-14T16:46:35.803Z,78.80
2018-02-14T16:49:03.356Z,78.40
2018-02-14T16:51:34.221Z,79.00
2018-02-14T16:54:03.629Z,78.30
2018-02-14T16:56:31.181Z,78.30
2018-02-14T16:59:00.727Z,78.70
2018-02-14T17:01:31.491Z,78.20
2018-02-14T17:03:59.092Z,78.20
2018-02-14T17:06:28.163Z,77.60
2018-02-14T17:08:55.745Z,77.50
2018-02-14T17:11:27.249Z,77.90
2018-02-14T17:14:00.954Z,77.60
2018-02-14T17:16:32.864Z,77.60
2018-02-14T17:19:00.429Z,77.80
2018-02-14T17:21:27.981Z,77.60
2018-02-14T17:24:01.208Z,77.90
2018-02-14T17:26:28.761Z,78.30
2018-02-14T17:28:56.314Z,77.80
2018-02-14T17:31:27.778Z,77.80
2018-02-14T17:33:55.325Z,77.70
2018-02-14T17:36:24.370Z,77.70
2018-02-14T17:38:51.912Z,77.70
2018-02-14T17:41:19.457Z,77.90
2018-02-14T17:43:47.180Z,77.70
2018-02-14T17:46:15.516Z,78.50
2018-02-14T17:48:49.913Z,78.50
2018-02-14T17:51:20.757Z,78.50
2018-02-14T17:53:48.305Z,78.10
2018-02-14T17:56:17.157Z,78.40
2018-02-14T17:58:45.397Z,78.70
2018-02-14T18:01:15.321Z,78.60
2018-02-14T18:03:42.901Z,78.70
2018-02-14T18:06:10.456Z,78.80
2018-02-14T18:08:43.656Z,79.00
2018-02-14T18:11:11.725Z,79.30
2018-02-14T18:13:39.274Z,80.20
2018-02-14T18:16:12.985Z,80.30
2018-02-14T18:18:44.724Z,80.20
2018-02-14T18:21:12.376Z,80.50
2018-02-14T18:23:40.273Z,80.60
2018-02-14T18:26:07.829Z,80.70
2018-02-14T18:28:35.380Z,80.80
2018-02-14T18:31:03.262Z,81.10
2018-02-14T18:33:30.812Z,81.60
2018-02-14T18:35:58.357Z,81.60
2018-02-14T18:38:26.113Z,81.50
2018-02-14T18:41:02.241Z,82.10
2018-02-14T18:43:29.932Z,81.80
2018-02-14T18:45:57.605Z,81.70
2018-02-14T18:48:25.151Z,81.60
2018-02-14T18:50:55.849Z,80.70
2018-02-14T18:53:28.105Z,80.50
2018-02-14T18:55:55.657Z,80.50
2018-02-14T18:58:28.343Z,81.30
2018-02-14T19:00:57.398Z,80.90
2018-02-14T19:03:24.955Z,80.90
2018-02-14T19:05:56.851Z,81.20
2018-02-14T19:08:24.394Z,81.40
2018-02-14T19:10:53.097Z,81.70
2018-02-14T19:13:23.795Z,82.80
2018-02-14T19:15:51.363Z,82.60
2018-02-14T19:18:19.356Z,82.50
2018-02-14T19:20:46.904Z,82.20
2018-02-14T19:23:14.457Z,82.20
2018-02-14T19:25:48.477Z,81.90
2018-02-14T19:28:16.112Z,81.80
2018-02-14T19:30:43.658Z,81.80
2018-02-14T19:33:11.465Z,82.00
2018-02-14T19:35:39.018Z,82.60
2018-02-14T19:38:06.571Z,81.20
2018-02-14T19:40:34.176Z,81.60
2018-02-14T19:43:01.733Z,81.50
2018-02-14T19:45:30.051Z,81.30
2018-02-14T19:47:57.851Z,81.30
2018-02-14T19:50:33.877Z,81.70
2018-02-14T19:53:01.433Z,81.60
2018-02-14T19:55:29.573Z,82.40
2018-02-14T19:57:58.421Z,82.20
2018-02-14T20:00:25.972Z,82.20
2018-02-14T20:02:54.777Z,82.40
2018-02-14T20:05:30.377Z,82.50
2018-02-14T20:07:57.928Z,82.30
2018-02-14T20:10:25.486Z,82.90
2018-02-14T20:12:53.865Z,83.00
2018-02-14T20:15:21.438Z,83.00
2018-02-14T20:17:53.106Z,83.00
2018-02-14T20:20:21.001Z,82.60
2018-02-14T20:22:48.549Z,82.40
2018-02-14T20:25:16.097Z,82.50
2018-02-14T20:27:43.705Z,82.50
2018-02-14T20:30:11.437Z,83.00
2018-02-14T20:32:38.993Z,83.30
2018-02-14T20:35:06.973Z,83.40
2018-02-14T20:37:34.605Z,83.30
2018-02-14T20:40:02.166Z,84.40
2018-02-14T20:42:29.957Z,83.80
2018-02-14T20:44:57.509Z,84.20
2018-02-14T20:47:25.117Z,84.20
2018-02-14T20:49:53.761Z,84.30
2018-02-14T20:52:21.311Z,84.30
2018-02-14T20:54:49.057Z,84.10
2018-02-14T20:57:16.749Z,84.10
2018-02-14T20:59:44.299Z,85.00
2018-02-14T21:02:11.853Z,85.00
2018-02-14T21:04:39.947Z,84.50
2018-02-14T21:07:07.569Z,85.10
2018-02-14T21:09:35.117Z,85.30
2018-02-14T21:12:03.128Z,85.30
2018-02-14T21:14:30.681Z,85.20
2018-02-14T21:16:58.229Z,85.20
2018-02-14T21:19:26.093Z,85.10
2018-02-14T21:21:53.645Z,85.20
2018-02-14T21:24:21.193Z,85.50
2018-02-14T21:26:48.893Z,85.40
2018-02-14T21:29:16.445Z,85.50
2018-02-14T21:31:44.179Z,85.30
2018-02-14T21:34:11.786Z,85.40
2018-02-14T21:36:39.339Z,85.50
2018-02-14T21:39:06.884Z,85.30
2018-02-14T21:41:34.873Z,85.40
2018-02-14T21:44:02.495Z,85.50
2018-02-14T21:46:32.484Z,85.40
2018-02-14T21:49:03.408Z,85.70
2018-02-14T21:51:31.735Z,85.80
2018-02-14T21:53:59.530Z,85.60
2018-02-14T21:56:27.825Z,85.30
2018-02-14T21:58:58.577Z,85.30
2018-02-14T22:01:26.897Z,85.10
2018-02-14T22:03:55.165Z,85.10
2018-02-14T22:06:22.716Z,85.90
2018-02-14T22:08:51.712Z,85.80
2018-02-14T22:11:20.117Z,85.90
2018-02-14T22:13:47.668Z,85.80
2018-02-14T22:16:15.223Z,85.60
2018-02-14T22:18:45.985Z,85.90
2018-02-14T22:21:15.780Z,86.20
2018-02-14T22:23:43.325Z,86.50
2018-02-14T22:26:11.489Z,86.60
2018-02-14T22:28:39.044Z,86.80
2018-02-14T22:31:06.627Z,87.00
2018-02-14T22:33:34.225Z,86.60
2018-02-14T22:36:02.549Z,86.30
2018-02-14T22:38:30.095Z,86.30
2018-02-14T22:40:57.794Z,86.30
2018-02-14T22:43:27.385Z,86.50
2018-02-14T22:45:55.260Z,86.30
2018-02-14T22:48:22.821Z,86.10
2018-02-14T22:50:50.970Z,86.00
2018-02-14T22:53:18.522Z,85.90
2018-02-14T22:55:46.081Z,86.00
2018-02-14T22:58:15.303Z,86.40
2018-02-14T23:00:42.861Z,86.30
2018-02-14T23:03:10.409Z,87.10
2018-02-14T23:05:38.131Z,86.90
2018-02-14T23:08:07.385Z,87.40
2018-02-14T23:10:34.933Z,87.30
2018-02-14T23:13:02.800Z,87.30
2018-02-14T23:15:30.349Z,87.70
2018-02-14T23:17:57.908Z,87.00
2018-02-14T23:20:26.124Z,87.40
2018-02-14T23:22:54.288Z,87.40
2018-02-14T23:25:21.835Z,87.60
2018-02-14T23:27:50.131Z,87.50
2018-02-14T23:30:17.682Z,87.60
2018-02-14T23:32:45.230Z,87.70
2018-02-14T23:35:12.973Z,87.80
2018-02-14T23:37:40.517Z,88.20
2018-02-14T23:40:08.064Z,88.20
2018-02-14T23:42:36.438Z,88.40
2018-02-14T23:45:03.990Z,88.30
2018-02-14T23:47:31.537Z,88.10
2018-02-14T23:49:59.513Z,88.20
2018-02-14T23:52:27.065Z,88.00
2018-02-14T23:54:55.387Z,88.30
2018-02-14T23:57:23.101Z,88.00
2018-02-14T23:59:50.659Z,87.90
